sensor_id;sensor_type;location;lat;lon;timestamp;P1;durP1;ratioP1;P2;durP2;ratioP2
54235;SDS011;40151;43.606;1.472;2022-07-12T00:00:47;3.85;;;2.40;;
54235;SDS011;40151;43.606;1.472;2022-07-12T00:03:13;4.47;;;2.78;;
54235;SDS011;40151;43.606;1.472;2022-07-12T00:05:38;4.93;;;2.67;;
54235;SDS011;40151;43.606;1.472;2022-07-12T00:08:04;3.95;;;2.40;;
54235;SDS011;40151;43.606;1.472;2022-07-12T00:10:31;3.97;;;2.55;;
54235;SDS011;40151;43.606;1.472;2022-07-12T00:12:57;3.80;;;2.72;;
54235;SDS011;40151;43.606;1.472;2022-07-12T00:15:23;4.95;;;2.70;;
54235;SDS011;40151;43.606;1.472;2022-07-12T00:17:48;3.55;;;2.30;;
54235;SDS011;40151;43.606;1.472;2022-07-12T00:20:14;4.53;;;2.60;;
54235;SDS011;40151;43.606;1.472;2022-07-12T00:22:40;4.38;;;2.70;;
54235;SDS011;40151;43.606;1.472;2022-07-12T00:25:05;4.63;;;2.47;;
54235;SDS011;40151;43.606;1.472;2022-07-12T00:27:31;4.47;;;2.50;;
54235;SDS011;40151;43.606;1.472;2022-07-12T00:29:57;4.53;;;2.75;;
54235;SDS011;40151;43.606;1.472;2022-07-12T00:32:23;5.32;;;2.30;;
54235;SDS011;40151;43.606;1.472;2022-07-12T00:34:48;5.00;;;2.72;;
54235;SDS011;40151;43.606;1.472;2022-07-12T00:37:14;5.85;;;2.67;;
54235;SDS011;40151;43.606;1.472;2022-07-12T00:39:39;3.97;;;2.60;;
54235;SDS011;40151;43.606;1.472;2022-07-12T00:42:05;4.40;;;2.53;;
54235;SDS011;40151;43.606;1.472;2022-07-12T00:44:31;4.53;;;2.58;;
54235;SDS011;40151;43.606;1.472;2022-07-12T00:46:59;4.32;;;2.60;;
54235;SDS011;40151;43.606;1.472;2022-07-12T00:49:25;5.25;;;2.50;;
54235;SDS011;40151;43.606;1.472;2022-07-12T00:51:51;3.50;;;2.40;;
54235;SDS011;40151;43.606;1.472;2022-07-12T00:54:19;3.85;;;2.60;;
54235;SDS011;40151;43.606;1.472;2022-07-12T00:56:45;4.18;;;2.45;;
54235;SDS011;40151;43.606;1.472;2022-07-12T00:59:11;6.78;;;2.50;;
54235;SDS011;40151;43.606;1.472;2022-07-12T01:01:37;4.82;;;2.78;;
54235;SDS011;40151;43.606;1.472;2022-07-12T01:04:04;4.70;;;2.78;;
54235;SDS011;40151;43.606;1.472;2022-07-12T01:06:30;4.53;;;2.65;;
54235;SDS011;40151;43.606;1.472;2022-07-12T01:08:57;3.75;;;2.25;;
54235;SDS011;40151;43.606;1.472;2022-07-12T01:11:26;4.28;;;2.35;;
54235;SDS011;40151;43.606;1.472;2022-07-12T01:13:52;6.00;;;2.65;;
54235;SDS011;40151;43.606;1.472;2022-07-12T01:16:19;3.80;;;2.30;;
54235;SDS011;40151;43.606;1.472;2022-07-12T01:18:45;5.28;;;2.30;;
54235;SDS011;40151;43.606;1.472;2022-07-12T01:21:12;4.60;;;2.38;;
54235;SDS011;40151;43.606;1.472;2022-07-12T01:23:43;3.55;;;2.30;;
54235;SDS011;40151;43.606;1.472;2022-07-12T01:26:11;4.68;;;2.40;;
54235;SDS011;40151;43.606;1.472;2022-07-12T01:28:37;3.28;;;2.15;;
54235;SDS011;40151;43.606;1.472;2022-07-12T01:31:03;4.70;;;2.30;;
54235;SDS011;40151;43.606;1.472;2022-07-12T01:33:29;6.90;;;2.60;;
54235;SDS011;40151;43.606;1.472;2022-07-12T01:35:55;3.92;;;2.55;;
54235;SDS011;40151;43.606;1.472;2022-07-12T01:38:22;4.05;;;2.50;;
54235;SDS011;40151;43.606;1.472;2022-07-12T01:40:48;4.50;;;2.35;;
54235;SDS011;40151;43.606;1.472;2022-07-12T01:43:13;5.03;;;2.28;;
54235;SDS011;40151;43.606;1.472;2022-07-12T01:45:39;3.55;;;2.45;;
54235;SDS011;40151;43.606;1.472;2022-07-12T01:48:06;4.50;;;2.35;;
54235;SDS011;40151;43.606;1.472;2022-07-12T01:50:32;4.45;;;2.30;;
54235;SDS011;40151;43.606;1.472;2022-07-12T01:52:57;3.53;;;2.13;;
54235;SDS011;40151;43.606;1.472;2022-07-12T01:55:25;3.03;;;2.30;;
54235;SDS011;40151;43.606;1.472;2022-07-12T01:57:51;3.60;;;2.10;;
54235;SDS011;40151;43.606;1.472;2022-07-12T02:00:17;5.82;;;2.80;;
54235;SDS011;40151;43.606;1.472;2022-07-12T02:02:45;5.05;;;2.30;;
54235;SDS011;40151;43.606;1.472;2022-07-12T02:05:12;3.50;;;2.25;;
54235;SDS011;40151;43.606;1.472;2022-07-12T02:07:37;5.43;;;2.60;;
54235;SDS011;40151;43.606;1.472;2022-07-12T02:10:05;4.30;;;2.42;;
54235;SDS011;40151;43.606;1.472;2022-07-12T02:12:31;4.57;;;2.55;;
54235;SDS011;40151;43.606;1.472;2022-07-12T02:14:56;4.18;;;2.40;;
54235;SDS011;40151;43.606;1.472;2022-07-12T02:17:22;4.65;;;2.30;;
54235;SDS011;40151;43.606;1.472;2022-07-12T02:19:48;4.28;;;2.70;;
54235;SDS011;40151;43.606;1.472;2022-07-12T02:22:13;5.00;;;2.55;;
54235;SDS011;40151;43.606;1.472;2022-07-12T02:24:39;5.20;;;2.78;;
54235;SDS011;40151;43.606;1.472;2022-07-12T02:27:04;3.90;;;2.30;;
54235;SDS011;40151;43.606;1.472;2022-07-12T02:29:31;6.82;;;2.50;;
54235;SDS011;40151;43.606;1.472;2022-07-12T02:31:57;3.85;;;2.40;;
54235;SDS011;40151;43.606;1.472;2022-07-12T02:34:22;6.00;;;2.50;;
54235;SDS011;40151;43.606;1.472;2022-07-12T02:36:48;3.63;;;2.10;;
54235;SDS011;40151;43.606;1.472;2022-07-12T02:39:13;4.63;;;2.40;;
54235;SDS011;40151;43.606;1.472;2022-07-12T02:41:39;3.83;;;2.50;;
54235;SDS011;40151;43.606;1.472;2022-07-12T02:44:04;4.18;;;2.47;;
54235;SDS011;40151;43.606;1.472;2022-07-12T02:46:30;5.00;;;2.80;;
54235;SDS011;40151;43.606;1.472;2022-07-12T02:48:55;4.45;;;2.80;;
54235;SDS011;40151;43.606;1.472;2022-07-12T02:51:21;4.18;;;2.30;;
54235;SDS011;40151;43.606;1.472;2022-07-12T02:53:47;5.72;;;2.55;;
54235;SDS011;40151;43.606;1.472;2022-07-12T02:56:12;5.50;;;2.35;;
54235;SDS011;40151;43.606;1.472;2022-07-12T02:58:38;3.45;;;2.33;;
54235;SDS011;40151;43.606;1.472;2022-07-12T03:01:04;5.00;;;2.58;;
54235;SDS011;40151;43.606;1.472;2022-07-12T03:03:29;3.40;;;2.60;;
54235;SDS011;40151;43.606;1.472;2022-07-12T03:05:55;4.18;;;2.63;;
54235;SDS011;40151;43.606;1.472;2022-07-12T03:08:21;4.65;;;2.63;;
54235;SDS011;40151;43.606;1.472;2022-07-12T03:10:47;4.47;;;2.60;;
54235;SDS011;40151;43.606;1.472;2022-07-12T03:13:13;5.22;;;2.63;;
54235;SDS011;40151;43.606;1.472;2022-07-12T03:15:39;8.60;;;2.72;;
54235;SDS011;40151;43.606;1.472;2022-07-12T03:18:04;4.55;;;2.65;;
54235;SDS011;40151;43.606;1.472;2022-07-12T03:20:30;5.97;;;2.72;;
54235;SDS011;40151;43.606;1.472;2022-07-12T03:22:56;5.07;;;2.50;;
54235;SDS011;40151;43.606;1.472;2022-07-12T03:25:22;4.28;;;2.38;;
54235;SDS011;40151;43.606;1.472;2022-07-12T03:27:48;5.07;;;2.75;;
54235;SDS011;40151;43.606;1.472;2022-07-12T03:30:14;5.30;;;2.72;;
54235;SDS011;40151;43.606;1.472;2022-07-12T03:32:40;4.50;;;2.88;;
54235;SDS011;40151;43.606;1.472;2022-07-12T03:35:05;4.93;;;2.53;;
54235;SDS011;40151;43.606;1.472;2022-07-12T03:37:47;4.35;;;2.70;;
54235;SDS011;40151;43.606;1.472;2022-07-12T03:40:14;5.22;;;2.60;;
54235;SDS011;40151;43.606;1.472;2022-07-12T03:42:41;3.67;;;2.50;;
54235;SDS011;40151;43.606;1.472;2022-07-12T03:45:08;4.70;;;2.95;;
54235;SDS011;40151;43.606;1.472;2022-07-12T03:47:34;4.75;;;2.55;;
54235;SDS011;40151;43.606;1.472;2022-07-12T03:50:02;5.85;;;2.92;;
54235;SDS011;40151;43.606;1.472;2022-07-12T03:52:29;5.45;;;2.65;;
54235;SDS011;40151;43.606;1.472;2022-07-12T03:54:56;4.97;;;2.85;;
54235;SDS011;40151;43.606;1.472;2022-07-12T03:57:21;5.30;;;2.55;;
54235;SDS011;40151;43.606;1.472;2022-07-12T03:59:47;4.13;;;2.35;;
54235;SDS011;40151;43.606;1.472;2022-07-12T04:02:12;5.40;;;2.72;;
54235;SDS011;40151;43.606;1.472;2022-07-12T04:04:38;5.20;;;2.92;;
54235;SDS011;40151;43.606;1.472;2022-07-12T04:07:04;5.47;;;3.05;;
54235;SDS011;40151;43.606;1.472;2022-07-12T04:09:30;6.47;;;2.85;;
54235;SDS011;40151;43.606;1.472;2022-07-12T04:11:56;5.80;;;2.90;;
54235;SDS011;40151;43.606;1.472;2022-07-12T04:14:22;4.82;;;2.67;;
54235;SDS011;40151;43.606;1.472;2022-07-12T04:16:48;5.97;;;2.75;;
54235;SDS011;40151;43.606;1.472;2022-07-12T04:19:13;4.88;;;2.50;;
54235;SDS011;40151;43.606;1.472;2022-07-12T04:21:39;5.65;;;2.85;;
54235;SDS011;40151;43.606;1.472;2022-07-12T04:24:05;5.72;;;3.13;;
54235;SDS011;40151;43.606;1.472;2022-07-12T04:26:31;5.25;;;2.63;;
54235;SDS011;40151;43.606;1.472;2022-07-12T04:28:57;5.57;;;2.30;;
54235;SDS011;40151;43.606;1.472;2022-07-12T04:31:23;4.75;;;2.88;;
54235;SDS011;40151;43.606;1.472;2022-07-12T04:33:49;4.45;;;2.53;;
54235;SDS011;40151;43.606;1.472;2022-07-12T04:36:16;6.53;;;3.00;;
54235;SDS011;40151;43.606;1.472;2022-07-12T04:38:42;3.95;;;2.55;;
54235;SDS011;40151;43.606;1.472;2022-07-12T04:41:07;4.30;;;2.60;;
54235;SDS011;40151;43.606;1.472;2022-07-12T04:43:33;4.10;;;2.60;;
54235;SDS011;40151;43.606;1.472;2022-07-12T04:46:05;5.75;;;3.05;;
54235;SDS011;40151;43.606;1.472;2022-07-12T04:48:34;5.35;;;2.83;;
54235;SDS011;40151;43.606;1.472;2022-07-12T04:51:00;6.18;;;2.53;;
54235;SDS011;40151;43.606;1.472;2022-07-12T04:53:26;5.22;;;2.35;;
54235;SDS011;40151;43.606;1.472;2022-07-12T04:55:56;4.35;;;2.50;;
54235;SDS011;40151;43.606;1.472;2022-07-12T04:58:22;3.88;;;2.60;;
54235;SDS011;40151;43.606;1.472;2022-07-12T05:00:48;5.40;;;2.78;;
54235;SDS011;40151;43.606;1.472;2022-07-12T05:03:14;5.88;;;2.40;;
54235;SDS011;40151;43.606;1.472;2022-07-12T05:05:40;5.10;;;2.63;;
54235;SDS011;40151;43.606;1.472;2022-07-12T05:08:06;5.45;;;3.00;;
54235;SDS011;40151;43.606;1.472;2022-07-12T05:10:31;4.55;;;2.95;;
54235;SDS011;40151;43.606;1.472;2022-07-12T05:12:57;7.93;;;2.85;;
54235;SDS011;40151;43.606;1.472;2022-07-12T05:15:22;3.47;;;2.55;;
54235;SDS011;40151;43.606;1.472;2022-07-12T05:17:48;5.95;;;2.80;;
54235;SDS011;40151;43.606;1.472;2022-07-12T05:20:13;5.68;;;3.17;;
54235;SDS011;40151;43.606;1.472;2022-07-12T05:22:39;6.20;;;3.00;;
54235;SDS011;40151;43.606;1.472;2022-07-12T05:25:06;4.60;;;2.53;;
54235;SDS011;40151;43.606;1.472;2022-07-12T05:27:33;5.32;;;2.83;;
54235;SDS011;40151;43.606;1.472;2022-07-12T05:30:03;6.95;;;2.67;;
54235;SDS011;40151;43.606;1.472;2022-07-12T05:32:29;5.30;;;2.60;;
54235;SDS011;40151;43.606;1.472;2022-07-12T05:34:55;4.00;;;2.70;;
54235;SDS011;40151;43.606;1.472;2022-07-12T05:37:20;3.42;;;2.65;;
54235;SDS011;40151;43.606;1.472;2022-07-12T05:39:48;4.38;;;2.40;;
54235;SDS011;40151;43.606;1.472;2022-07-12T05:42:14;4.78;;;2.63;;
54235;SDS011;40151;43.606;1.472;2022-07-12T05:44:39;4.75;;;2.85;;
54235;SDS011;40151;43.606;1.472;2022-07-12T05:47:05;3.53;;;2.65;;
54235;SDS011;40151;43.606;1.472;2022-07-12T05:49:30;5.53;;;2.70;;
54235;SDS011;40151;43.606;1.472;2022-07-12T05:51:56;6.10;;;2.97;;
54235;SDS011;40151;43.606;1.472;2022-07-12T05:54:40;4.53;;;2.75;;
54235;SDS011;40151;43.606;1.472;2022-07-12T05:57:05;8.32;;;3.22;;
54235;SDS011;40151;43.606;1.472;2022-07-12T05:59:31;5.38;;;2.65;;
54235;SDS011;40151;43.606;1.472;2022-07-12T06:01:56;7.47;;;2.92;;
54235;SDS011;40151;43.606;1.472;2022-07-12T06:04:22;5.90;;;3.10;;
54235;SDS011;40151;43.606;1.472;2022-07-12T06:06:48;7.28;;;3.00;;
54235;SDS011;40151;43.606;1.472;2022-07-12T06:09:13;5.20;;;2.50;;
54235;SDS011;40151;43.606;1.472;2022-07-12T06:11:39;4.53;;;2.63;;
54235;SDS011;40151;43.606;1.472;2022-07-12T06:14:05;5.60;;;2.70;;
54235;SDS011;40151;43.606;1.472;2022-07-12T06:16:30;3.95;;;2.58;;
54235;SDS011;40151;43.606;1.472;2022-07-12T06:18:56;4.88;;;3.00;;
54235;SDS011;40151;43.606;1.472;2022-07-12T06:21:22;3.92;;;2.35;;
54235;SDS011;40151;43.606;1.472;2022-07-12T06:23:48;3.58;;;2.47;;
54235;SDS011;40151;43.606;1.472;2022-07-12T06:26:13;5.38;;;2.80;;
54235;SDS011;40151;43.606;1.472;2022-07-12T06:28:39;4.00;;;2.58;;
54235;SDS011;40151;43.606;1.472;2022-07-12T06:31:06;4.35;;;2.60;;
54235;SDS011;40151;43.606;1.472;2022-07-12T06:33:31;4.85;;;2.45;;
54235;SDS011;40151;43.606;1.472;2022-07-12T06:35:57;4.18;;;2.30;;
54235;SDS011;40151;43.606;1.472;2022-07-12T06:38:22;3.72;;;2.20;;
54235;SDS011;40151;43.606;1.472;2022-07-12T06:40:48;3.97;;;2.25;;
54235;SDS011;40151;43.606;1.472;2022-07-12T06:43:13;4.10;;;2.47;;
54235;SDS011;40151;43.606;1.472;2022-07-12T06:45:39;4.82;;;2.67;;
54235;SDS011;40151;43.606;1.472;2022-07-12T06:48:05;5.40;;;2.83;;
54235;SDS011;40151;43.606;1.472;2022-07-12T06:50:31;5.65;;;2.70;;
54235;SDS011;40151;43.606;1.472;2022-07-12T06:52:57;5.85;;;2.67;;
54235;SDS011;40151;43.606;1.472;2022-07-12T06:55:23;5.95;;;2.83;;
54235;SDS011;40151;43.606;1.472;2022-07-12T06:57:48;4.22;;;2.50;;
54235;SDS011;40151;43.606;1.472;2022-07-12T07:00:14;4.38;;;2.38;;
54235;SDS011;40151;43.606;1.472;2022-07-12T07:02:40;5.38;;;2.65;;
54235;SDS011;40151;43.606;1.472;2022-07-12T07:05:06;4.30;;;2.75;;
54235;SDS011;40151;43.606;1.472;2022-07-12T07:07:32;4.32;;;2.10;;
54235;SDS011;40151;43.606;1.472;2022-07-12T07:09:58;5.78;;;2.70;;
54235;SDS011;40151;43.606;1.472;2022-07-12T07:12:24;5.50;;;2.63;;
54235;SDS011;40151;43.606;1.472;2022-07-12T07:14:49;4.18;;;2.47;;
54235;SDS011;40151;43.606;1.472;2022-07-12T07:17:15;3.75;;;2.45;;
54235;SDS011;40151;43.606;1.472;2022-07-12T07:19:45;4.80;;;2.95;;
54235;SDS011;40151;43.606;1.472;2022-07-12T07:22:14;4.15;;;2.90;;
54235;SDS011;40151;43.606;1.472;2022-07-12T07:24:39;4.15;;;2.65;;
54235;SDS011;40151;43.606;1.472;2022-07-12T07:27:05;6.43;;;2.75;;
54235;SDS011;40151;43.606;1.472;2022-07-12T07:29:31;5.57;;;2.88;;
54235;SDS011;40151;43.606;1.472;2022-07-12T07:32:16;4.90;;;2.45;;
54235;SDS011;40151;43.606;1.472;2022-07-12T07:34:41;4.80;;;2.80;;
54235;SDS011;40151;43.606;1.472;2022-07-12T07:37:07;4.22;;;2.65;;
54235;SDS011;40151;43.606;1.472;2022-07-12T07:39:33;4.75;;;2.38;;
54235;SDS011;40151;43.606;1.472;2022-07-12T07:41:59;5.63;;;2.85;;
54235;SDS011;40151;43.606;1.472;2022-07-12T07:44:24;5.00;;;2.85;;
54235;SDS011;40151;43.606;1.472;2022-07-12T07:46:50;3.83;;;2.88;;
54235;SDS011;40151;43.606;1.472;2022-07-12T07:49:15;3.15;;;2.28;;
54235;SDS011;40151;43.606;1.472;2022-07-12T07:51:41;4.15;;;2.53;;
54235;SDS011;40151;43.606;1.472;2022-07-12T07:54:07;4.05;;;2.55;;
54235;SDS011;40151;43.606;1.472;2022-07-12T07:56:32;4.53;;;2.30;;
54235;SDS011;40151;43.606;1.472;2022-07-12T07:58:58;3.58;;;2.45;;
54235;SDS011;40151;43.606;1.472;2022-07-12T08:01:23;4.07;;;2.67;;
54235;SDS011;40151;43.606;1.472;2022-07-12T08:04:16;5.03;;;2.65;;
54235;SDS011;40151;43.606;1.472;2022-07-12T08:06:43;2.95;;;2.28;;
54235;SDS011;40151;43.606;1.472;2022-07-12T08:09:09;3.45;;;2.35;;
54235;SDS011;40151;43.606;1.472;2022-07-12T08:11:35;5.18;;;2.85;;
54235;SDS011;40151;43.606;1.472;2022-07-12T08:14:01;3.00;;;2.08;;
54235;SDS011;40151;43.606;1.472;2022-07-12T08:16:28;4.07;;;2.40;;
54235;SDS011;40151;43.606;1.472;2022-07-12T08:18:53;4.72;;;2.40;;
54235;SDS011;40151;43.606;1.472;2022-07-12T08:21:19;3.92;;;2.00;;
54235;SDS011;40151;43.606;1.472;2022-07-12T08:23:44;5.07;;;2.47;;
54235;SDS011;40151;43.606;1.472;2022-07-12T08:26:10;3.70;;;2.38;;
54235;SDS011;40151;43.606;1.472;2022-07-12T08:28:35;3.83;;;1.80;;
54235;SDS011;40151;43.606;1.472;2022-07-12T08:31:01;3.05;;;2.20;;
54235;SDS011;40151;43.606;1.472;2022-07-12T08:33:26;3.53;;;2.05;;
54235;SDS011;40151;43.606;1.472;2022-07-12T08:35:52;3.53;;;1.98;;
54235;SDS011;40151;43.606;1.472;2022-07-12T08:38:17;3.53;;;1.98;;
54235;SDS011;40151;43.606;1.472;2022-07-12T08:40:43;2.88;;;1.95;;
54235;SDS011;40151;43.606;1.472;2022-07-12T08:43:09;3.47;;;2.20;;
54235;SDS011;40151;43.606;1.472;2022-07-12T08:45:35;3.42;;;1.90;;
54235;SDS011;40151;43.606;1.472;2022-07-12T08:48:01;5.25;;;2.08;;
54235;SDS011;40151;43.606;1.472;2022-07-12T08:50:27;5.32;;;2.20;;
54235;SDS011;40151;43.606;1.472;2022-07-12T08:52:53;5.78;;;2.55;;
54235;SDS011;40151;43.606;1.472;2022-07-12T08:55:21;3.10;;;2.05;;
54235;SDS011;40151;43.606;1.472;2022-07-12T08:57:47;3.47;;;2.22;;
54235;SDS011;40151;43.606;1.472;2022-07-12T09:00:14;3.58;;;1.98;;
54235;SDS011;40151;43.606;1.472;2022-07-12T09:02:47;5.45;;;2.40;;
54235;SDS011;40151;43.606;1.472;2022-07-12T09:05:24;5.63;;;2.47;;
54235;SDS011;40151;43.606;1.472;2022-07-12T09:08:07;3.75;;;2.03;;
54235;SDS011;40151;43.606;1.472;2022-07-12T09:10:51;2.90;;;1.92;;
54235;SDS011;40151;43.606;1.472;2022-07-12T09:16:16;3.50;;;2.08;;
54235;SDS011;40151;43.606;1.472;2022-07-12T09:18:43;3.28;;;1.92;;
54235;SDS011;40151;43.606;1.472;2022-07-12T09:21:20;4.55;;;2.30;;
54235;SDS011;40151;43.606;1.472;2022-07-12T09:23:58;3.35;;;2.00;;
54235;SDS011;40151;43.606;1.472;2022-07-12T09:26:31;3.40;;;1.80;;
54235;SDS011;40151;43.606;1.472;2022-07-12T09:29:07;2.80;;;2.03;;
54235;SDS011;40151;43.606;1.472;2022-07-12T09:31:38;3.13;;;1.83;;
54235;SDS011;40151;43.606;1.472;2022-07-12T09:34:31;4.50;;;2.47;;
54235;SDS011;40151;43.606;1.472;2022-07-12T09:37:14;4.13;;;2.30;;
54235;SDS011;40151;43.606;1.472;2022-07-12T09:39:41;3.72;;;2.00;;
54235;SDS011;40151;43.606;1.472;2022-07-12T09:42:07;2.45;;;1.67;;
54235;SDS011;40151;43.606;1.472;2022-07-12T09:44:37;3.88;;;2.13;;
54235;SDS011;40151;43.606;1.472;2022-07-12T09:47:04;2.15;;;1.88;;
54235;SDS011;40151;43.606;1.472;2022-07-12T09:49:34;3.63;;;2.10;;
54235;SDS011;40151;43.606;1.472;2022-07-12T09:52:00;2.38;;;1.80;;
54235;SDS011;40151;43.606;1.472;2022-07-12T09:54:28;2.45;;;1.75;;
54235;SDS011;40151;43.606;1.472;2022-07-12T09:56:58;3.80;;;2.00;;
54235;SDS011;40151;43.606;1.472;2022-07-12T09:59:28;2.95;;;1.92;;
54235;SDS011;40151;43.606;1.472;2022-07-12T10:01:57;4.00;;;1.98;;
54235;SDS011;40151;43.606;1.472;2022-07-12T10:04:29;2.33;;;1.80;;
54235;SDS011;40151;43.606;1.472;2022-07-12T10:06:58;2.90;;;1.88;;
54235;SDS011;40151;43.606;1.472;2022-07-12T10:09:24;2.78;;;1.83;;
54235;SDS011;40151;43.606;1.472;2022-07-12T10:11:51;3.40;;;1.90;;
54235;SDS011;40151;43.606;1.472;2022-07-12T10:14:18;2.72;;;1.80;;
54235;SDS011;40151;43.606;1.472;2022-07-12T10:16:44;3.97;;;1.85;;
54235;SDS011;40151;43.606;1.472;2022-07-12T10:19:30;2.03;;;1.60;;
54235;SDS011;40151;43.606;1.472;2022-07-12T10:21:58;3.55;;;1.98;;
54235;SDS011;40151;43.606;1.472;2022-07-12T10:29:42;3.53;;;2.00;;
54235;SDS011;40151;43.606;1.472;2022-07-12T10:34:59;3.55;;;2.03;;
54235;SDS011;40151;43.606;1.472;2022-07-12T10:37:26;2.92;;;2.03;;
54235;SDS011;40151;43.606;1.472;2022-07-12T10:40:12;3.60;;;2.13;;
54235;SDS011;40151;43.606;1.472;2022-07-12T10:42:40;3.50;;;2.00;;
54235;SDS011;40151;43.606;1.472;2022-07-12T10:53:28;2.55;;;1.90;;
54235;SDS011;40151;43.606;1.472;2022-07-12T11:01:20;2.75;;;1.70;;
54235;SDS011;40151;43.606;1.472;2022-07-12T11:03:51;3.83;;;2.15;;
54235;SDS011;40151;43.606;1.472;2022-07-12T11:06:20;2.88;;;1.95;;
54235;SDS011;40151;43.606;1.472;2022-07-12T11:11:17;4.35;;;2.10;;
54235;SDS011;40151;43.606;1.472;2022-07-12T11:13:44;2.83;;;1.60;;
54235;SDS011;40151;43.606;1.472;2022-07-12T11:16:10;3.00;;;2.00;;
54235;SDS011;40151;43.606;1.472;2022-07-12T11:18:36;3.63;;;1.92;;
54235;SDS011;40151;43.606;1.472;2022-07-12T11:21:03;3.88;;;1.83;;
54235;SDS011;40151;43.606;1.472;2022-07-12T11:23:30;2.78;;;1.92;;
54235;SDS011;40151;43.606;1.472;2022-07-12T11:25:57;3.40;;;2.45;;
54235;SDS011;40151;43.606;1.472;2022-07-12T11:28:29;3.50;;;1.80;;
54235;SDS011;40151;43.606;1.472;2022-07-12T11:31:11;3.67;;;1.90;;
54235;SDS011;40151;43.606;1.472;2022-07-12T11:33:42;3.13;;;1.88;;
54235;SDS011;40151;43.606;1.472;2022-07-12T11:36:14;2.40;;;1.90;;
54235;SDS011;40151;43.606;1.472;2022-07-12T11:38:41;2.35;;;1.67;;
54235;SDS011;40151;43.606;1.472;2022-07-12T11:41:09;2.40;;;1.80;;
54235;SDS011;40151;43.606;1.472;2022-07-12T11:43:35;3.35;;;1.65;;
54235;SDS011;40151;43.606;1.472;2022-07-12T11:46:03;3.55;;;1.98;;
54235;SDS011;40151;43.606;1.472;2022-07-12T11:48:30;2.67;;;1.83;;
54235;SDS011;40151;43.606;1.472;2022-07-12T11:51:02;2.90;;;1.80;;
54235;SDS011;40151;43.606;1.472;2022-07-12T11:53:30;2.25;;;1.70;;
54235;SDS011;40151;43.606;1.472;2022-07-12T11:55:58;3.97;;;2.22;;
54235;SDS011;40151;43.606;1.472;2022-07-12T11:58:24;3.22;;;1.95;;
54235;SDS011;40151;43.606;1.472;2022-07-12T12:00:52;2.85;;;1.98;;
54235;SDS011;40151;43.606;1.472;2022-07-12T12:03:19;2.58;;;1.70;;
54235;SDS011;40151;43.606;1.472;2022-07-12T12:05:47;3.63;;;2.00;;
54235;SDS011;40151;43.606;1.472;2022-07-12T12:08:14;2.40;;;1.70;;
54235;SDS011;40151;43.606;1.472;2022-07-12T12:10:41;3.70;;;2.00;;
54235;SDS011;40151;43.606;1.472;2022-07-12T12:13:15;2.70;;;1.90;;
54235;SDS011;40151;43.606;1.472;2022-07-12T12:15:48;2.22;;;1.90;;
54235;SDS011;40151;43.606;1.472;2022-07-12T12:18:16;2.13;;;1.60;;
54235;SDS011;40151;43.606;1.472;2022-07-12T12:20:42;2.60;;;1.90;;
54235;SDS011;40151;43.606;1.472;2022-07-12T12:23:14;4.25;;;1.73;;
54235;SDS011;40151;43.606;1.472;2022-07-12T12:25:42;2.63;;;1.90;;
54235;SDS011;40151;43.606;1.472;2022-07-12T12:28:08;2.92;;;2.08;;
54235;SDS011;40151;43.606;1.472;2022-07-12T12:30:34;2.83;;;1.90;;
54235;SDS011;40151;43.606;1.472;2022-07-12T12:33:13;4.25;;;2.10;;
54235;SDS011;40151;43.606;1.472;2022-07-12T12:36:10;3.00;;;1.80;;
54235;SDS011;40151;43.606;1.472;2022-07-12T12:38:57;3.22;;;1.90;;
54235;SDS011;40151;43.606;1.472;2022-07-12T12:41:25;3.42;;;2.10;;
54235;SDS011;40151;43.606;1.472;2022-07-12T12:49:49;3.60;;;2.00;;
54235;SDS011;40151;43.606;1.472;2022-07-12T12:52:16;4.95;;;2.25;;
54235;SDS011;40151;43.606;1.472;2022-07-12T12:54:42;2.72;;;1.70;;
54235;SDS011;40151;43.606;1.472;2022-07-12T12:57:09;3.53;;;1.95;;
54235;SDS011;40151;43.606;1.472;2022-07-12T12:59:37;3.03;;;2.03;;
54235;SDS011;40151;43.606;1.472;2022-07-12T13:02:03;2.92;;;2.25;;
54235;SDS011;40151;43.606;1.472;2022-07-12T13:04:31;2.90;;;2.17;;
54235;SDS011;40151;43.606;1.472;2022-07-12T13:06:58;2.63;;;2.10;;
54235;SDS011;40151;43.606;1.472;2022-07-12T13:09:24;3.58;;;1.88;;
54235;SDS011;40151;43.606;1.472;2022-07-12T13:11:51;2.50;;;1.92;;
54235;SDS011;40151;43.606;1.472;2022-07-12T13:14:17;2.83;;;2.10;;
54235;SDS011;40151;43.606;1.472;2022-07-12T13:16:43;2.90;;;1.83;;
54235;SDS011;40151;43.606;1.472;2022-07-12T13:19:09;3.97;;;2.00;;
54235;SDS011;40151;43.606;1.472;2022-07-12T13:21:34;3.13;;;2.03;;
54235;SDS011;40151;43.606;1.472;2022-07-12T13:24:00;2.03;;;1.67;;
54235;SDS011;40151;43.606;1.472;2022-07-12T13:26:26;2.63;;;1.90;;
54235;SDS011;40151;43.606;1.472;2022-07-12T13:28:53;3.75;;;1.90;;
54235;SDS011;40151;43.606;1.472;2022-07-12T13:31:19;2.97;;;1.90;;
54235;SDS011;40151;43.606;1.472;2022-07-12T13:33:45;3.15;;;2.00;;
54235;SDS011;40151;43.606;1.472;2022-07-12T13:36:11;4.10;;;1.90;;
54235;SDS011;40151;43.606;1.472;2022-07-12T13:38:37;2.72;;;1.65;;
54235;SDS011;40151;43.606;1.472;2022-07-12T13:41:03;4.65;;;2.00;;
54235;SDS011;40151;43.606;1.472;2022-07-12T13:43:29;2.38;;;1.75;;
54235;SDS011;40151;43.606;1.472;2022-07-12T13:45:55;3.35;;;1.88;;
54235;SDS011;40151;43.606;1.472;2022-07-12T13:48:21;2.05;;;1.58;;
54235;SDS011;40151;43.606;1.472;2022-07-12T13:50:47;2.58;;;1.88;;
54235;SDS011;40151;43.606;1.472;2022-07-12T13:53:13;2.50;;;1.70;;
54235;SDS011;40151;43.606;1.472;2022-07-12T13:55:41;2.05;;;1.60;;
54235;SDS011;40151;43.606;1.472;2022-07-12T13:58:08;2.00;;;1.65;;
54235;SDS011;40151;43.606;1.472;2022-07-12T14:00:34;2.60;;;1.80;;
54235;SDS011;40151;43.606;1.472;2022-07-12T14:03:00;3.03;;;1.58;;
54235;SDS011;40151;43.606;1.472;2022-07-12T14:05:25;3.25;;;1.92;;
54235;SDS011;40151;43.606;1.472;2022-07-12T14:07:51;3.72;;;1.77;;
54235;SDS011;40151;43.606;1.472;2022-07-12T14:10:17;2.45;;;1.67;;
54235;SDS011;40151;43.606;1.472;2022-07-12T14:12:43;2.58;;;1.77;;
54235;SDS011;40151;43.606;1.472;2022-07-12T14:15:09;2.00;;;1.55;;
54235;SDS011;40151;43.606;1.472;2022-07-12T14:17:41;2.95;;;1.88;;
54235;SDS011;40151;43.606;1.472;2022-07-12T14:20:09;4.20;;;1.60;;
54235;SDS011;40151;43.606;1.472;2022-07-12T14:22:35;2.83;;;1.83;;
54235;SDS011;40151;43.606;1.472;2022-07-12T14:25:01;3.10;;;1.98;;
54235;SDS011;40151;43.606;1.472;2022-07-12T14:27:31;1.95;;;1.42;;
54235;SDS011;40151;43.606;1.472;2022-07-12T14:29:57;2.45;;;1.60;;
54235;SDS011;40151;43.606;1.472;2022-07-12T14:32:23;1.95;;;1.40;;
54235;SDS011;40151;43.606;1.472;2022-07-12T14:34:49;2.95;;;1.83;;
54235;SDS011;40151;43.606;1.472;2022-07-12T14:37:15;2.33;;;1.30;;
54235;SDS011;40151;43.606;1.472;2022-07-12T14:39:40;3.03;;;1.75;;
54235;SDS011;40151;43.606;1.472;2022-07-12T14:42:06;2.53;;;1.48;;
54235;SDS011;40151;43.606;1.472;2022-07-12T14:44:31;2.03;;;1.67;;
54235;SDS011;40151;43.606;1.472;2022-07-12T14:46:57;3.35;;;1.95;;
54235;SDS011;40151;43.606;1.472;2022-07-12T14:49:23;3.80;;;1.58;;
54235;SDS011;40151;43.606;1.472;2022-07-12T14:51:48;2.13;;;1.50;;
54235;SDS011;40151;43.606;1.472;2022-07-12T14:54:14;2.17;;;1.40;;
54235;SDS011;40151;43.606;1.472;2022-07-12T14:56:40;3.03;;;1.67;;
54235;SDS011;40151;43.606;1.472;2022-07-12T14:59:06;3.70;;;1.50;;
54235;SDS011;40151;43.606;1.472;2022-07-12T15:01:32;3.17;;;1.63;;
54235;SDS011;40151;43.606;1.472;2022-07-12T15:03:57;2.67;;;1.65;;
54235;SDS011;40151;43.606;1.472;2022-07-12T15:06:23;2.45;;;1.42;;
54235;SDS011;40151;43.606;1.472;2022-07-12T15:08:51;2.47;;;1.67;;
54235;SDS011;40151;43.606;1.472;2022-07-12T15:11:17;2.22;;;1.42;;
54235;SDS011;40151;43.606;1.472;2022-07-12T15:13:43;1.63;;;1.35;;
54235;SDS011;40151;43.606;1.472;2022-07-12T15:16:09;2.03;;;1.40;;
54235;SDS011;40151;43.606;1.472;2022-07-12T15:18:34;2.40;;;1.48;;
54235;SDS011;40151;43.606;1.472;2022-07-12T15:21:02;2.97;;;1.65;;